Hundvaag 1 weather for Dec 2003
Month no. 198
Obs.
Da.
Temp. Dew Point Precip. Wind
Speed
Wind gusts Cloud cover Press. Humidity Wind dir. Sunny OPT
01.12.2003 5,1   2,1 1,0   0 1012,0 93,0     60,0 %
02.12.2003 6,9   2,1 0,0   0 1018,9 93,0     60,0 %
03.12.2003 6,5   0,5 2,0   0 1019,9 100,0     60,0 %
04.12.2003 8,0   0,0 5,0   0 1021,8 93,0 202,5   60,0 %
05.12.2003 5,4   0,7 3,0   0 1019,5 93,0 180,0   60,0 %
06.12.2003 2,5   2,3 10,0   10 1025,3 60,0 0,0 1 77,5 %
07.12.2003 3,2   0,0 2,0   0 1023,7 87,0 180,0   57,5 %
08.12.2003 6,8   1,0 2,0   0 1019,3 93,0 180,0   60,0 %
09.12.2003 5,3   0,5 6,0   0 1017,4 87,0 157,5   57,5 %
10.12.2003 8,2   0,2 17,0   0 1013,2 87,0 180,0   52,5 %
11.12.2003 5,4   5,1 10,0   1 1003,1 93,0 0,0 1 55,0 %
12.12.2003 1,8   0,0 10,0   10 1014,7 81,0 0,0 1 75,0 %
13.12.2003 7,7   5,2 13,0   0 999,0 93,0 180,0 1 52,5 %
14.12.2003 6,5   3,2 33,0   2 999,3 61,0 337,5   40,0 %
15.12.2003 1,4   3,6 20,0   4 1010,4 75,0 0,0 1 50,0 %
16.12.2003 2,6   0,1 3,0   0 1017,2 87,0     57,5 %
17.12.2003 8,8   8,7 15,0   0 1011,3 93,0 270,0   47,5 %
18.12.2003 8,5   1,9 9,0   0 1011,3 93,0 225,0   57,5 %
19.12.2003 7,5   4,2 9,0   0 1007,6 81,0 270,0 1 55,0 %
20.12.2003 3,1   2,5 7,0   0 1010,0 93,0 112,5   55,0 %
21.12.2003 5,2   0,1 20,0   0 999,8 53,0 22,5   47,5 %
22.12.2003 0,1   0,0 13,0   10 1014,7 55,0 337,5 1 72,5 %
23.12.2003 2,5   1,2 10,0   0 1014,7 81,0 135,0 1 52,5 %
24.12.2003 9,2   11,7 17,0   0 1009,3 93,0 225,0   45,0 %
25.12.2003 6,8   22,5 8,0   0 1003,9 96,0 247,5   37,5 %
26.12.2003 4,6   5,6 9,0   1 1003,9 93,0 135,0   52,5 %
27.12.2003 5,6   20,9 23,0   3 985,4 70,0 180,0 1 37,5 %
28.12.2003 3,9   11,2 8,0   0 995,9 87,0 157,5   45,0 %
29.12.2003 0,3   4,7 1,0   10 1002,0 87,0   1 77,5 %
30.12.2003 -3,2   6,0 3,0   10 1014,7 100,0 90,0 1 70,0 %
31.12.2003 -3,4   0,9 5,0   10 1022,4 91,0 135,0 1 72,5 %
Avrg/Sum 4,6   128,7 9,5   2,3 1011,0 85,2 159,2 12 56,8 %